Time;durP1;ratioP1;P1;durP2;ratioP2;P2;SDS_P1;SDS_P2;PMS_P1;PMS_P2;Temp;Humidity;BMP_temperature;BMP_pressure;BME280_temperature;BME280_humidity;BME280_pressure;Samples;Min_cycle;Max_cycle;Signal;HPM_P1;HPM_P2
2021/06/24 00:02:18;;;;;;;15.52;10.32;;;;;;;19.67;79.71;96707.44;5115423;28;20137;-60
2021/06/24 00:04:44;;;;;;;17.92;11.23;;;;;;;19.73;79.69;96707.00;5115374;28;20019;-64
2021/06/24 00:07:09;;;;;;;16.58;9.02;;;;;;;19.75;79.20;96705.06;5115034;28;20100;-62
2021/06/24 00:09:35;;;;;;;15.73;10.70;;;;;;;19.79;78.80;96697.72;5113411;28;20396;-60
2021/06/24 00:12:01;;;;;;;17.15;9.77;;;;;;;19.76;79.24;96692.66;5115126;28;20469;-64
2021/06/24 00:14:27;;;;;;;17.75;11.32;;;;;;;19.68;79.47;96685.22;5114987;28;20485;-62
2021/06/24 00:16:52;;;;;;;19.60;10.15;;;;;;;19.59;79.64;96676.16;5114907;28;20446;-63
2021/06/24 00:19:18;;;;;;;25.27;12.05;;;;;;;19.54;79.87;96668.50;5115068;28;20354;-63
2021/06/24 00:21:43;;;;;;;17.30;10.38;;;;;;;19.50;80.43;96674.19;5114842;28;20024;-62
2021/06/24 00:24:09;;;;;;;21.23;12.07;;;;;;;19.47;80.78;96675.22;5114943;28;20023;-60
2021/06/24 00:26:35;;;;;;;14.13;10.30;;;;;;;19.43;80.82;96681.72;5114132;28;20062;-64
2021/06/24 00:29:00;;;;;;;15.95;9.95;;;;;;;19.42;81.00;96690.63;5114876;28;20108;-63
2021/06/24 00:31:26;;;;;;;19.85;11.80;;;;;;;19.42;81.20;96688.00;5114029;28;20032;-64
2021/06/24 00:33:51;;;;;;;17.90;9.23;;;;;;;19.49;81.24;96691.88;5114820;28;20026;-64
2021/06/24 00:36:17;;;;;;;12.25;10.02;;;;;;;19.53;81.18;96685.41;5114128;28;20069;-61
2021/06/24 00:38:42;;;;;;;18.65;10.65;;;;;;;19.63;81.46;96680.25;5114569;28;20107;-62
2021/06/24 00:41:09;;;;;;;19.13;12.88;;;;;;;19.75;81.14;96685.66;5114560;27;20077;-64
2021/06/24 00:43:34;;;;;;;18.10;10.77;;;;;;;19.88;81.16;96688.25;5114532;28;20377;-61
2021/06/24 00:46:00;;;;;;;16.20;9.88;;;;;;;19.98;80.89;96691.91;5114074;28;20026;-62
2021/06/24 00:48:27;;;;;;;20.85;11.27;;;;;;;20.02;80.14;96680.13;5114326;28;20358;-59
2021/06/24 00:50:53;;;;;;;16.40;9.27;;;;;;;20.09;80.08;96683.19;5114364;28;20049;-64
2021/06/24 00:53:18;;;;;;;14.50;10.23;;;;;;;20.13;79.52;96692.59;5114401;28;20015;-60
2021/06/24 00:55:45;;;;;;;16.80;9.63;;;;;;;20.18;79.27;96694.91;5114099;28;20027;-61
2021/06/24 00:58:20;;;;;;;23.17;11.10;;;;;;;20.12;78.96;96698.03;5113653;28;20373;-60
2021/06/24 01:00:47;;;;;;;15.13;9.73;;;;;;;19.96;79.19;96701.81;5114173;28;20423;-60
2021/06/24 01:03:13;;;;;;;22.42;12.52;;;;;;;19.89;79.67;96701.41;5114121;28;20024;-59
2021/06/24 01:05:43;;;;;;;13.80;9.95;;;;;;;19.97;80.19;96708.81;5114055;28;20469;-64
2021/06/24 01:08:10;;;;;;;28.77;10.88;;;;;;;20.03;79.65;96707.53;5113574;28;20058;-60
2021/06/24 01:10:37;;;;;;;13.50;9.65;;;;;;;20.08;79.71;96705.41;5113942;28;20107;-64
2021/06/24 01:13:04;;;;;;;30.23;11.50;;;;;;;20.13;79.48;96700.56;5114000;28;20023;-64
2021/06/24 01:15:30;;;;;;;17.40;8.82;;;;;;;20.08;79.47;96694.78;5113618;28;20024;-61
2021/06/24 01:17:57;;;;;;;9.98;8.02;;;;;;;20.10;79.07;96711.41;5114010;28;20050;-60
2021/06/24 01:20:25;;;;;;;16.77;9.73;;;;;;;20.12;79.62;96711.31;5113671;28;20035;-60
2021/06/24 01:22:51;;;;;;;12.73;9.40;;;;;;;20.14;79.43;96712.06;5113769;28;20024;-62
2021/06/24 01:25:16;;;;;;;14.55;9.30;;;;;;;20.11;79.31;96709.63;5113828;28;20027;-62
2021/06/24 01:27:42;;;;;;;15.25;10.18;;;;;;;20.05;79.55;96711.75;5113456;28;20051;-60
2021/06/24 01:30:08;;;;;;;23.00;10.20;;;;;;;19.99;79.97;96706.03;5113757;28;20030;-63
2021/06/24 01:32:34;;;;;;;20.30;10.98;;;;;;;19.93;80.60;96694.06;5113777;28;20122;-60
2021/06/24 01:34:59;;;;;;;17.17;9.85;;;;;;;19.97;80.42;96689.38;5113070;27;20111;-63
2021/06/24 01:37:25;;;;;;;18.17;9.88;;;;;;;20.01;80.54;96680.25;5113611;28;20073;-60
2021/06/24 01:39:50;;;;;;;25.63;11.85;;;;;;;20.05;79.98;96668.44;5113640;28;20026;-64
2021/06/24 01:42:16;;;;;;;21.60;10.63;;;;;;;20.09;80.31;96672.56;5113711;28;20031;-62
2021/06/24 01:44:42;;;;;;;13.27;9.48;;;;;;;20.15;80.27;96666.81;5113282;28;20084;-62
2021/06/24 01:47:10;;;;;;;14.95;9.27;;;;;;;20.20;79.60;96661.97;5113456;28;20141;-60
2021/06/24 01:49:35;;;;;;;20.90;9.77;;;;;;;20.24;78.62;96667.06;5113716;28;20069;-63
2021/06/24 01:52:01;;;;;;;16.73;9.73;;;;;;;20.14;78.53;96662.44;5113640;28;20024;-60
2021/06/24 01:54:27;;;;;;;14.38;9.43;;;;;;;20.16;78.79;96667.63;5113299;28;20024;-61
2021/06/24 01:56:52;;;;;;;21.30;9.05;;;;;;;20.19;78.73;96660.28;5113296;28;20062;-61
2021/06/24 01:59:18;;;;;;;15.38;8.68;;;;;;;20.18;78.62;96655.09;5113405;28;20024;-61
2021/06/24 02:01:44;;;;;;;20.20;8.25;;;;;;;20.11;77.81;96641.44;5113354;28;20020;-61
2021/06/24 02:04:10;;;;;;;26.45;11.38;;;;;;;19.94;79.03;96640.88;5113149;28;20030;-62
2021/06/24 02:06:35;;;;;;;16.77;9.90;;;;;;;19.88;79.03;96651.09;5113410;28;20098;-63
2021/06/24 02:09:01;;;;;;;19.38;9.77;;;;;;;19.92;79.35;96657.84;5113464;28;20536;-61
2021/06/24 02:11:27;;;;;;;18.30;10.27;;;;;;;19.96;79.18;96659.34;5113348;28;20020;-61
2021/06/24 02:13:52;;;;;;;21.10;9.65;;;;;;;19.98;78.49;96649.44;5113263;28;20048;-61
2021/06/24 02:16:18;;;;;;;15.80;9.23;;;;;;;19.93;78.61;96641.81;5112479;28;20051;-61
2021/06/24 02:18:44;;;;;;;19.70;9.77;;;;;;;19.87;78.54;96639.59;5113328;28;20020;-61
2021/06/24 02:21:10;;;;;;;21.95;10.38;;;;;;;19.80;79.26;96644.53;5113191;28;20465;-61
2021/06/24 02:23:35;;;;;;;22.83;11.95;;;;;;;19.81;79.28;96640.91;5113291;28;20038;-62
2021/06/24 02:26:01;;;;;;;19.42;9.85;;;;;;;19.81;78.87;96635.59;5112939;28;20434;-61
2021/06/24 02:28:26;;;;;;;19.27;9.25;;;;;;;19.85;78.70;96644.22;5113241;28;20473;-60
2021/06/24 02:30:52;;;;;;;30.00;10.20;;;;;;;19.86;78.36;96642.41;5113364;28;20472;-62
2021/06/24 02:33:19;;;;;;;14.05;8.95;;;;;;;19.85;77.77;96648.66;5114522;28;20028;-61
2021/06/24 02:35:57;;;;;;;22.08;10.05;;;;;;;19.73;78.32;96650.41;5116578;28;20036;-63
2021/06/24 02:38:23;;;;;;;17.77;9.32;;;;;;;19.70;78.33;96649.69;5117099;28;20077;-64
2021/06/24 02:40:49;;;;;;;21.50;9.88;;;;;;;19.72;78.01;96643.41;5116882;28;20034;-60
2021/06/24 02:43:15;;;;;;;17.92;8.82;;;;;;;19.71;78.22;96650.53;5116655;28;20015;-62
2021/06/24 02:45:42;;;;;;;19.02;8.48;;;;;;;19.70;77.79;96646.19;5116638;27;20042;-61
2021/06/24 02:48:08;;;;;;;20.42;10.10;;;;;;;19.67;77.63;96646.41;5116692;28;20028;-62
2021/06/24 02:50:34;;;;;;;23.02;9.07;;;;;;;19.58;77.99;96642.63;5116845;28;20030;-63
2021/06/24 02:52:59;;;;;;;21.23;10.00;;;;;;;19.58;78.07;96642.63;5116394;28;20024;-63
2021/06/24 02:55:30;;;;;;;18.05;9.98;;;;;;;19.57;77.90;96647.06;5116793;28;20027;-60
2021/06/24 02:57:57;;;;;;;21.05;9.05;;;;;;;19.60;77.67;96640.72;5116441;27;20047;-60
2021/06/24 03:00:24;;;;;;;25.25;9.90;;;;;;;19.65;77.38;96641.22;5116462;28;20034;-60
2021/06/24 03:02:49;;;;;;;20.05;8.70;;;;;;;19.60;77.60;96640.72;5116083;28;20027;-63
2021/06/24 03:05:15;;;;;;;25.65;10.80;;;;;;;19.57;77.33;96639.13;5116642;28;20068;-64
2021/06/24 03:07:41;;;;;;;17.67;8.75;;;;;;;19.60;77.43;96629.25;5116476;28;20063;-62
2021/06/24 03:10:08;;;;;;;21.95;9.95;;;;;;;19.65;77.99;96630.59;5116464;28;20054;-60
2021/06/24 03:12:34;;;;;;;22.75;9.55;;;;;;;19.66;77.93;96632.28;5115502;28;20605;-61
2021/06/24 03:15:01;;;;;;;27.65;12.07;;;;;;;19.70;78.16;96633.78;5116208;28;20039;-61
2021/06/24 03:17:26;;;;;;;17.52;8.93;;;;;;;19.70;77.68;96633.78;5116244;28;20099;-61
2021/06/24 03:19:52;;;;;;;31.60;10.55;;;;;;;19.80;77.82;96638.38;5115919;28;20106;-61
2021/06/24 03:22:18;;;;;;;15.13;8.48;;;;;;;19.88;77.39;96638.66;5115774;28;20070;-62
2021/06/24 03:24:43;;;;;;;15.43;7.82;;;;;;;19.97;77.10;96645.09;5116041;28;20026;-61
2021/06/24 03:27:09;;;;;;;21.00;8.63;;;;;;;20.01;76.56;96643.94;5116095;28;20020;-62
2021/06/24 03:29:35;;;;;;;17.27;8.10;;;;;;;20.08;76.64;96649.66;5116034;28;20548;-63
2021/06/24 03:32:01;;;;;;;14.75;6.80;;;;;;;20.22;76.44;96651.22;5115416;28;20036;-63
2021/06/24 03:34:27;;;;;;;20.58;9.25;;;;;;;20.40;76.27;96650.78;5115486;28;20469;-62
2021/06/24 03:36:53;;;;;;;17.88;7.88;;;;;;;20.61;75.52;96661.59;5115567;28;20019;-63
2021/06/24 03:39:18;;;;;;;12.30;6.50;;;;;;;20.86;75.29;96656.19;5115510;28;20027;-59
2021/06/24 03:41:44;;;;;;;13.65;6.95;;;;;;;21.11;73.98;96665.75;5114803;28;20119;-61
2021/06/24 03:44:10;;;;;;;13.60;6.80;;;;;;;21.37;73.79;96664.66;5114235;28;20020;-61
2021/06/24 03:46:36;;;;;;;12.20;6.38;;;;;;;21.59;72.65;96664.59;5115099;28;20473;-61
2021/06/24 03:49:02;;;;;;;17.30;6.50;;;;;;;21.85;72.31;96660.81;5115333;28;20048;-63
2021/06/24 03:51:27;;;;;;;13.77;6.90;;;;;;;22.14;72.38;96660.22;5095049;28;20082;-65
2021/06/24 03:53:53;;;;;;;11.02;6.28;;;;;;;22.46;71.81;96664.63;5095108;28;20504;-63
2021/06/24 03:56:19;;;;;;;14.25;5.82;;;;;;;22.79;71.29;96671.75;5094826;28;20100;-61
2021/06/24 03:58:45;;;;;;;13.88;6.28;;;;;;;23.09;70.38;96657.56;5094962;28;20028;-62
2021/06/24 04:01:10;;;;;;;9.55;5.75;;;;;;;23.38;68.75;96658.66;5094997;28;20396;-63
2021/06/24 04:03:36;;;;;;;15.38;5.85;;;;;;;23.62;67.89;96654.78;5095045;28;20020;-63
2021/06/24 04:06:01;;;;;;;18.75;6.47;;;;;;;23.84;67.91;96658.22;5094802;28;20093;-65
2021/06/24 04:08:27;;;;;;;23.95;5.65;;;;;;;24.08;67.06;96662.28;5094875;28;20123;-64
2021/06/24 04:10:52;;;;;;;15.52;6.30;;;;;;;24.25;66.59;96668.78;5094788;28;20047;-64
2021/06/24 04:13:18;;;;;;;22.77;6.50;;;;;;;24.49;66.10;96667.47;5094635;28;20389;-66
2021/06/24 04:15:43;;;;;;;15.60;5.57;;;;;;;24.76;66.12;96657.84;5094821;28;20031;-64
2021/06/24 04:18:09;;;;;;;18.15;5.00;;;;;;;25.08;65.25;96666.50;5094737;28;20020;-64
2021/06/24 04:20:35;;;;;;;15.00;6.15;;;;;;;25.37;64.32;96662.84;5094648;28;20377;-65
2021/06/24 04:23:02;;;;;;;12.82;5.72;;;;;;;25.66;63.85;96664.56;5094536;28;20030;-62
2021/06/24 04:25:28;;;;;;;9.65;4.45;;;;;;;25.93;63.57;96661.97;5094514;28;20141;-61
2021/06/24 04:27:55;;;;;;;11.15;5.20;;;;;;;26.20;62.96;96653.00;5094357;28;20492;-67
2021/06/24 04:30:21;;;;;;;14.73;5.95;;;;;;;26.46;61.66;96651.41;5094425;28;20048;-65
2021/06/24 04:32:49;;;;;;;19.42;5.68;;;;;;;26.73;60.98;96654.94;5094539;28;20047;-62
2021/06/24 04:35:15;;;;;;;12.77;5.45;;;;;;;26.97;61.49;96658.75;5094412;28;20454;-66
2021/06/24 04:37:41;;;;;;;11.02;6.00;;;;;;;27.23;61.29;96653.38;5094184;28;20026;-64
2021/06/24 04:40:08;;;;;;;10.68;4.95;;;;;;;27.54;60.69;96651.97;5094247;28;20016;-64
2021/06/24 04:42:34;;;;;;;10.63;5.07;;;;;;;27.83;60.00;96649.88;5094163;28;20028;-63
2021/06/24 04:45:00;;;;;;;10.80;5.93;;;;;;;28.07;60.03;96653.59;5094289;28;20020;-63
2021/06/24 04:47:25;;;;;;;18.05;5.85;;;;;;;28.30;57.97;96663.72;5094024;28;20028;-65
2021/06/24 04:49:52;;;;;;;19.00;6.50;;;;;;;28.56;57.32;96655.47;5094112;28;20024;-61
2021/06/24 04:52:18;;;;;;;15.68;5.97;;;;;;;28.82;56.16;96664.34;5094251;28;20024;-63
2021/06/24 04:54:44;;;;;;;25.08;7.07;;;;;;;29.05;56.92;96663.66;5094001;28;20024;-63
2021/06/24 04:57:09;;;;;;;18.42;6.07;;;;;;;29.33;57.21;96655.13;5093296;28;20051;-63
2021/06/24 04:59:35;;;;;;;16.70;5.88;;;;;;;29.54;57.19;96659.94;5093894;28;20091;-62
2021/06/24 05:02:01;;;;;;;11.57;4.88;;;;;;;29.78;57.23;96666.22;5093775;28;20381;-66
2021/06/24 05:04:26;;;;;;;14.50;5.40;;;;;;;30.01;54.83;96670.81;5093718;28;20020;-65
2021/06/24 05:06:54;;;;;;;14.77;6.10;;;;;;;30.23;53.84;96666.47;5093667;28;20028;-65
2021/06/24 05:09:28;;;;;;;11.55;5.32;;;;;;;30.47;54.37;96671.81;5093788;28;20030;-65
2021/06/24 05:11:54;;;;;;;9.95;4.97;;;;;;;30.69;55.77;96678.19;5093844;28;20031;-65
2021/06/24 05:14:20;;;;;;;16.13;4.97;;;;;;;30.90;53.84;96665.88;5093750;28;20017;-64
2021/06/24 05:16:46;;;;;;;24.08;5.50;;;;;;;31.00;52.65;96671.84;5093579;28;20023;-67
2021/06/24 05:19:12;;;;;;;18.73;5.20;;;;;;;31.04;53.40;96671.47;5093607;28;20400;-63
2021/06/24 05:21:39;;;;;;;16.58;6.82;;;;;;;30.79;52.27;96674.44;5093619;28;20027;-67
2021/06/24 05:24:05;;;;;;;21.08;6.90;;;;;;;31.04;54.31;96679.56;5093586;28;20030;-66
2021/06/24 05:26:30;;;;;;;15.15;5.32;;;;;;;31.33;53.42;96680.59;5093323;28;20481;-64
2021/06/24 05:28:56;;;;;;;20.13;5.90;;;;;;;31.55;53.93;96678.84;5093497;28;20026;-67
2021/06/24 05:31:22;;;;;;;19.85;6.10;;;;;;;31.82;53.22;96676.47;5093469;28;20020;-62
2021/06/24 05:33:48;;;;;;;11.07;5.68;;;;;;;32.07;53.38;96686.94;5093489;28;20095;-67
2021/06/24 05:36:14;;;;;;;19.95;5.88;;;;;;;32.28;53.06;96686.09;5093436;28;20056;-68
2021/06/24 05:38:39;;;;;;;21.42;6.28;;;;;;;32.47;53.49;96691.06;5093300;28;20082;-63
2021/06/24 05:41:05;;;;;;;15.50;5.82;;;;;;;32.69;52.17;96701.88;5093305;28;20560;-62
2021/06/24 05:43:30;;;;;;;19.63;5.75;;;;;;;32.75;52.26;96696.50;5093245;28;20070;-63
2021/06/24 05:45:56;;;;;;;15.07;5.70;;;;;;;32.71;50.77;96697.13;5093237;28;20036;-66
2021/06/24 05:48:21;;;;;;;18.92;6.15;;;;;;;32.88;50.39;96697.66;5093308;28;20168;-67
2021/06/24 05:50:47;;;;;;;19.17;5.65;;;;;;;33.11;51.47;96702.00;5093130;28;20048;-68
2021/06/24 05:53:13;;;;;;;19.05;6.18;;;;;;;33.19;48.51;96701.84;5093128;28;20016;-65
2021/06/24 05:55:48;;;;;;;25.15;6.47;;;;;;;33.34;46.86;96695.44;5093104;28;20605;-65
2021/06/24 05:58:15;;;;;;;14.57;6.30;;;;;;;33.50;46.88;96705.13;5092998;28;20044;-62
2021/06/24 06:00:42;;;;;;;25.02;6.72;;;;;;;33.59;46.33;96705.84;5093076;28;20028;-63
2021/06/24 06:03:08;;;;;;;20.67;5.90;;;;;;;33.61;45.88;96699.16;5093000;28;20529;-64
2021/06/24 06:05:34;;;;;;;19.20;6.82;;;;;;;33.65;46.96;96700.44;5092946;28;20032;-68
2021/06/24 06:08:01;;;;;;;23.55;5.88;;;;;;;33.76;48.59;96706.31;5094353;28;20107;-64
2021/06/24 06:10:27;;;;;;;22.23;6.13;;;;;;;33.77;47.00;96714.22;5097296;28;20028;-61
2021/06/24 06:12:53;;;;;;;15.68;5.88;;;;;;;33.84;45.33;96705.28;5097183;28;20032;-65
2021/06/24 06:15:18;;;;;;;20.42;6.18;;;;;;;33.93;44.96;96697.81;5095847;28;20481;-66
2021/06/24 06:17:44;;;;;;;18.77;5.90;;;;;;;34.22;45.80;96695.84;5096928;28;20032;-62
2021/06/24 06:20:10;;;;;;;25.80;6.55;;;;;;;34.31;45.18;96701.91;5096976;28;20046;-64
2021/06/24 06:22:36;;;;;;;21.63;6.93;;;;;;;34.47;45.28;96703.38;5096965;28;20020;-65
2021/06/24 06:25:02;;;;;;;19.00;6.40;;;;;;;34.54;44.98;96707.75;5096967;28;20024;-63
2021/06/24 06:27:28;;;;;;;12.43;6.18;;;;;;;34.65;45.34;96708.19;5096791;28;20104;-61
2021/06/24 06:29:54;;;;;;;12.68;6.00;;;;;;;34.69;45.76;96700.47;5096848;28;20024;-64
2021/06/24 06:32:21;;;;;;;19.00;6.03;;;;;;;34.77;45.28;96703.84;5096650;28;20028;-63
2021/06/24 06:34:47;;;;;;;21.92;6.60;;;;;;;34.47;43.55;96706.09;5096742;28;20054;-65
2021/06/24 06:37:13;;;;;;;15.95;6.70;;;;;;;34.46;45.64;96710.66;5096633;28;20020;-63
2021/06/24 06:39:38;;;;;;;26.88;6.65;;;;;;;34.62;44.19;96711.31;5096430;28;20107;-62
2021/06/24 06:42:04;;;;;;;22.50;7.28;;;;;;;34.44;43.06;96704.63;5096476;28;20032;-65
2021/06/24 06:44:30;;;;;;;18.55;6.95;;;;;;;34.46;45.29;96710.66;5096677;28;20027;-65
2021/06/24 06:46:56;;;;;;;21.45;6.72;;;;;;;34.48;47.52;96715.88;5096632;28;20028;-64
2021/06/24 06:49:22;;;;;;;16.48;6.90;;;;;;;34.31;45.30;96710.84;5095289;28;20462;-65
2021/06/24 06:51:48;;;;;;;25.25;6.93;;;;;;;34.09;44.75;96719.13;5096308;28;20020;-65
2021/06/24 06:54:13;;;;;;;23.92;7.72;;;;;;;33.73;44.75;96726.53;5096296;28;20389;-64
2021/06/24 06:56:39;;;;;;;20.67;6.88;;;;;;;33.48;45.29;96718.03;5095917;28;20052;-65
2021/06/24 06:59:06;;;;;;;21.52;7.47;;;;;;;33.43;45.47;96725.94;5096221;28;20020;-66
2021/06/24 07:01:32;;;;;;;22.45;7.15;;;;;;;33.67;46.65;96732.75;5096238;28;20062;-63
2021/06/24 07:03:58;;;;;;;21.10;7.47;;;;;;;33.82;46.18;96731.75;5096141;28;20358;-65
2021/06/24 07:06:25;;;;;;;22.17;7.10;;;;;;;34.06;46.93;96727.69;5096034;28;20099;-65
2021/06/24 07:08:51;;;;;;;18.92;6.20;;;;;;;34.45;46.12;96719.84;5095990;28;20111;-64
2021/06/24 07:11:17;;;;;;;22.23;7.00;;;;;;;34.75;43.99;96727.63;5096008;28;20024;-68
2021/06/24 07:13:43;;;;;;;15.90;6.00;;;;;;;35.10;44.95;96728.44;5095951;28;20020;-63
2021/06/24 07:16:10;;;;;;;21.10;7.22;;;;;;;35.16;42.95;96727.59;5095824;28;20055;-68
2021/06/24 07:18:36;;;;;;;25.42;7.10;;;;;;;35.41;44.92;96727.78;5095485;28;20032;-65
2021/06/24 07:21:03;;;;;;;25.02;7.22;;;;;;;35.66;45.14;96724.34;5095981;28;20099;-66
2021/06/24 07:23:29;;;;;;;27.38;8.27;;;;;;;35.89;43.62;96722.19;5095845;28;20032;-65
2021/06/24 07:25:55;;;;;;;25.25;7.28;;;;;;;36.04;40.68;96716.47;5095659;28;20032;-66
2021/06/24 07:28:21;;;;;;;20.05;6.07;;;;;;;35.96;42.37;96725.72;5095631;28;20054;-68
2021/06/24 07:30:49;;;;;;;28.25;7.28;;;;;;;35.95;39.31;96726.78;5095476;28;20024;-66
2021/06/24 07:33:15;;;;;;;25.90;6.85;;;;;;;36.12;41.88;96726.28;5095533;28;20020;-65
2021/06/24 07:35:41;;;;;;;19.15;7.13;;;;;;;36.06;42.91;96741.59;5095381;28;20020;-63
2021/06/24 07:38:06;;;;;;;40.17;8.07;;;;;;;36.09;42.40;96741.16;5095361;28;20158;-63
2021/06/24 07:40:32;;;;;;;23.05;6.72;;;;;;;36.14;43.28;96735.88;5095526;28;20031;-68
2021/06/24 07:42:59;;;;;;;21.20;7.28;;;;;;;36.12;45.00;96737.97;5095442;28;20034;-64
2021/06/24 07:45:26;;;;;;;27.75;8.30;;;;;;;36.13;43.84;96731.50;5095438;28;20149;-64
2021/06/24 07:47:52;;;;;;;28.92;9.30;;;;;;;36.04;45.78;96732.78;5095389;28;20433;-64
2021/06/24 07:50:18;;;;;;;24.83;9.07;;;;;;;36.17;44.73;96729.16;5095363;28;20020;-62
2021/06/24 07:52:43;;;;;;;20.73;9.45;;;;;;;36.27;44.18;96731.44;5095075;28;20016;-65
2021/06/24 07:55:10;;;;;;;26.75;9.30;;;;;;;36.31;43.05;96729.94;5095170;28;20028;-64
2021/06/24 07:57:36;;;;;;;22.77;8.45;;;;;;;36.42;43.03;96736.59;5094865;28;20400;-65
2021/06/24 08:00:04;;;;;;;26.80;9.52;;;;;;;36.56;42.90;96742.75;5094975;28;20492;-63
2021/06/24 08:02:30;;;;;;;20.17;9.05;;;;;;;36.46;40.91;96734.25;5095015;28;20028;-65
2021/06/24 08:04:56;;;;;;;22.90;8.85;;;;;;;36.53;41.80;96732.31;5094895;28;20034;-63
2021/06/24 08:07:21;;;;;;;17.15;7.97;;;;;;;36.65;43.38;96735.16;5094870;28;20415;-65
2021/06/24 08:09:47;;;;;;;33.38;9.10;;;;;;;36.61;42.76;96732.06;5094825;28;20031;-64
2021/06/24 08:12:13;;;;;;;26.42;8.77;;;;;;;36.40;42.33;96727.78;5094890;28;20059;-65
2021/06/24 08:14:39;;;;;;;22.65;8.35;;;;;;;36.53;42.68;96733.16;5093583;28;20032;-65
2021/06/24 08:17:04;;;;;;;29.02;8.15;;;;;;;36.72;42.29;96733.22;5094571;28;20027;-61
2021/06/24 08:19:30;;;;;;;17.80;7.72;;;;;;;36.65;38.97;96725.09;5094657;28;20032;-64
2021/06/24 08:21:59;;;;;;;22.08;7.68;;;;;;;36.63;41.96;96731.81;5094524;28;20466;-63
2021/06/24 08:24:26;;;;;;;21.38;8.43;;;;;;;36.56;43.38;96729.13;5094559;28;20024;-63
2021/06/24 08:26:51;;;;;;;27.33;9.00;;;;;;;36.51;43.14;96724.34;5094698;28;20103;-68
2021/06/24 08:29:17;;;;;;;24.88;9.07;;;;;;;36.44;42.86;96723.56;5094509;28;20107;-66
2021/06/24 08:31:43;;;;;;;22.88;8.77;;;;;;;36.53;41.85;96727.69;5093566;28;20028;-66
2021/06/24 08:34:08;;;;;;;23.25;9.35;;;;;;;36.48;42.29;96729.41;5093251;28;20027;-63
2021/06/24 08:36:34;;;;;;;26.20;8.90;;;;;;;36.45;42.97;96721.69;5094226;28;20386;-65
2021/06/24 08:39:00;;;;;;;25.88;8.13;;;;;;;36.49;44.82;96714.75;5094309;28;20032;-61
2021/06/24 08:41:26;;;;;;;19.35;7.93;;;;;;;36.50;43.02;96716.41;5094180;28;20066;-65
2021/06/24 08:43:53;;;;;;;17.13;7.65;;;;;;;36.64;42.02;96718.00;5092859;28;20035;-65
2021/06/24 08:46:21;;;;;;;20.45;8.40;;;;;;;36.64;43.48;96717.16;5094048;28;20028;-62
2021/06/24 08:48:48;;;;;;;25.10;8.90;;;;;;;36.71;40.25;96714.41;5094109;28;20024;-66
2021/06/24 08:51:13;;;;;;;28.35;8.68;;;;;;;36.67;43.42;96713.97;5094089;28;20039;-63
2021/06/24 08:53:39;;;;;;;18.38;7.40;;;;;;;36.88;42.81;96710.06;5094168;28;20028;-67
2021/06/24 08:56:06;;;;;;;23.92;8.32;;;;;;;36.70;42.35;96693.66;5093590;28;20024;-66
2021/06/24 08:58:33;;;;;;;34.05;9.35;;;;;;;36.79;40.75;96705.94;5094048;28;20031;-63
2021/06/24 09:00:59;;;;;;;23.20;9.23;;;;;;;36.79;44.54;96706.78;5093862;28;20076;-64
2021/06/24 09:03:28;;;;;;;19.52;7.82;;;;;;;36.80;42.21;96710.34;5093871;28;20343;-65
2021/06/24 09:06:03;;;;;;;28.37;8.33;;;;;;;36.92;41.79;96716.72;5093808;28;20024;-64
2021/06/24 09:08:36;;;;;;;32.45;8.32;;;;;;;36.89;41.48;96713.59;5093651;28;20024;-66
2021/06/24 09:11:12;;;;;;;24.08;8.98;;;;;;;37.09;41.73;96712.59;5093743;28;20481;-66
2021/06/24 09:13:39;;;;;;;25.77;7.65;;;;;;;37.10;41.61;96715.09;5093677;28;20040;-62
2021/06/24 09:16:17;;;;;;;28.33;8.30;;;;;;;37.14;40.80;96715.50;5093505;28;20043;-64
2021/06/24 09:18:43;;;;;;;22.17;8.70;;;;;;;37.13;39.68;96708.34;5093699;28;20049;-63
2021/06/24 09:21:25;;;;;;;24.55;8.60;;;;;;;36.99;42.11;96704.94;5093667;28;20098;-62
2021/06/24 09:23:53;;;;;;;24.80;8.15;;;;;;;36.90;42.12;96707.13;5093461;28;20031;-65
2021/06/24 09:26:21;;;;;;;35.28;8.63;;;;;;;36.82;42.06;96707.38;5093382;28;20376;-67
2021/06/24 09:28:52;;;;;;;33.95;9.10;;;;;;;36.60;40.86;96710.47;5093420;28;20050;-63
2021/06/24 09:31:31;;;;;;;18.58;7.63;;;;;;;36.08;40.13;96706.81;5093418;28;20031;-63
2021/06/24 09:34:15;;;;;;;28.13;8.00;;;;;;;36.09;40.55;96694.06;5093534;28;20093;-64
2021/06/24 09:36:42;;;;;;;23.35;8.18;;;;;;;35.80;40.08;96697.13;5093250;28;20031;-64
2021/06/24 09:39:11;;;;;;;21.38;8.85;;;;;;;35.09;43.24;96700.44;5093281;28;20028;-66
2021/06/24 09:41:54;;;;;;;21.58;9.25;;;;;;;34.46;46.17;96697.09;5093166;28;20020;-64
2021/06/24 09:44:21;;;;;;;28.17;8.20;;;;;;;33.64;45.93;96698.75;5093247;28;20036;-66
2021/06/24 09:46:47;;;;;;;24.92;8.93;;;;;;;33.64;47.49;96696.06;5093182;28;20097;-64
2021/06/24 09:49:33;;;;;;;25.50;8.10;;;;;;;33.99;48.59;96681.56;5093288;28;20020;-65
2021/06/24 09:52:01;;;;;;;26.80;7.68;;;;;;;34.35;47.30;96678.72;5093342;28;20024;-62
2021/06/24 09:54:34;;;;;;;21.23;8.23;;;;;;;34.62;47.24;96682.28;5093257;28;20016;-61
2021/06/24 09:57:02;;;;;;;25.25;8.52;;;;;;;34.73;45.83;96688.16;5092636;28;20424;-65
2021/06/24 09:59:36;;;;;;;24.58;8.68;;;;;;;34.65;45.64;96686.47;5093141;28;20119;-65
2021/06/24 10:02:20;;;;;;;18.90;7.72;;;;;;;34.46;46.94;96691.66;5093032;28;20024;-64
2021/06/24 10:04:47;;;;;;;19.45;8.05;;;;;;;34.56;48.97;96685.00;5093203;28;20044;-65
2021/06/24 10:07:15;;;;;;;36.47;9.35;;;;;;;34.60;46.97;96678.94;5093180;28;20027;-62
2021/06/24 10:09:43;;;;;;;26.38;7.90;;;;;;;34.77;42.88;96673.97;5092914;28;20039;-65
2021/06/24 10:12:11;;;;;;;22.45;7.05;;;;;;;34.71;43.37;96680.22;5092920;28;20470;-64
2021/06/24 10:14:38;;;;;;;23.65;7.30;;;;;;;34.72;42.79;96676.47;5093053;28;20024;-65
2021/06/24 10:17:06;;;;;;;21.58;7.38;;;;;;;34.65;43.90;96671.06;5093017;28;20035;-63
2021/06/24 10:19:36;;;;;;;27.08;8.05;;;;;;;34.65;46.75;96671.06;5092964;28;20020;-65
2021/06/24 10:22:20;;;;;;;20.90;7.90;;;;;;;34.64;45.58;96666.63;5092971;28;20024;-63
2021/06/24 10:24:52;;;;;;;17.98;7.40;;;;;;;34.49;47.35;96679.56;5092887;28;20028;-66
2021/06/24 10:27:18;;;;;;;27.02;8.25;;;;;;;34.65;45.90;96675.59;5092898;28;20028;-63
2021/06/24 10:29:46;;;;;;;19.65;7.28;;;;;;;34.72;46.75;96671.03;5092988;28;20020;-63
2021/06/24 10:32:32;;;;;;;26.02;7.78;;;;;;;34.70;44.56;96664.16;5092878;28;20035;-66
2021/06/24 10:35:00;;;;;;;21.10;8.88;;;;;;;34.63;44.99;96664.94;5091574;28;20377;-62
2021/06/24 10:37:27;;;;;;;36.05;8.88;;;;;;;34.11;44.30;96656.53;5092568;28;20028;-63
2021/06/24 10:39:56;;;;;;;23.48;7.80;;;;;;;33.61;44.69;96660.38;5092695;28;20023;-62
2021/06/24 10:42:23;;;;;;;22.60;8.13;;;;;;;33.45;45.39;96667.78;5092798;28;20095;-63
2021/06/24 10:45:04;;;;;;;14.10;7.63;;;;;;;33.45;49.16;96662.38;5092864;28;20021;-66
2021/06/24 10:47:34;;;;;;;26.05;8.20;;;;;;;33.67;48.82;96656.84;5092662;28;20028;-65
2021/06/24 10:50:27;;;;;;;20.40;7.53;;;;;;;33.99;49.28;96661.72;5092753;28;20020;-63
2021/06/24 10:52:54;;;;;;;22.60;7.15;;;;;;;34.18;46.77;96651.97;5092722;28;20074;-64
2021/06/24 10:55:36;;;;;;;17.25;8.07;;;;;;;34.33;45.41;96650.94;5095899;28;20039;-66
2021/06/24 10:58:30;;;;;;;21.42;8.25;;;;;;;34.23;44.29;96646.78;5095876;28;20513;-65
2021/06/24 11:00:59;;;;;;;21.90;7.63;;;;;;;34.16;46.11;96643.25;5096260;28;20028;-62
2021/06/24 11:03:31;;;;;;;21.02;7.28;;;;;;;33.97;45.90;96647.53;5096275;28;20032;-63
2021/06/24 11:06:11;;;;;;;23.05;6.95;;;;;;;34.18;47.78;96645.72;5096162;28;20107;-64
2021/06/24 11:08:41;;;;;;;25.42;7.30;;;;;;;34.25;47.13;96641.97;5096073;28;20141;-64
2021/06/24 11:11:11;;;;;;;23.33;7.23;;;;;;;34.08;47.04;96635.25;5096053;28;20032;-64
2021/06/24 11:13:40;;;;;;;22.75;7.88;;;;;;;33.82;45.96;96642.28;5095991;28;20032;-64
2021/06/24 11:18:40;;;;;;;21.70;7.28;;;;;;;33.86;46.29;96643.56;5095976;28;20499;-63
2021/06/24 11:21:10;;;;;;;28.77;7.25;;;;;;;33.65;44.86;96642.69;5095829;28;20024;-66
2021/06/24 11:23:37;;;;;;;20.00;6.93;;;;;;;33.40;45.79;96641.31;5095689;28;20067;-62
2021/06/24 11:26:14;;;;;;;21.38;6.80;;;;;;;33.32;45.42;96643.34;5095639;28;20071;-62
2021/06/24 11:28:44;;;;;;;18.20;7.55;;;;;;;33.26;46.11;96642.28;5095670;28;20038;-64